sensor_id;sensor_type;location;lat;lon;timestamp;P1;durP1;ratioP1;P2;durP2;ratioP2
15159;SDS011;7680;48.800;9.680;2022-08-11T00:02:09;4.18;;;3.40;;
15159;SDS011;7680;48.800;9.680;2022-08-11T00:04:45;3.47;;;3.10;;
15159;SDS011;7680;48.800;9.680;2022-08-11T00:07:19;3.80;;;3.50;;
15159;SDS011;7680;48.800;9.680;2022-08-11T00:09:54;3.40;;;3.13;;
15159;SDS011;7680;48.800;9.680;2022-08-11T00:12:28;3.65;;;3.35;;
15159;SDS011;7680;48.800;9.680;2022-08-11T00:15:02;4.07;;;3.60;;
15159;SDS011;7680;48.800;9.680;2022-08-11T00:17:36;3.83;;;3.45;;
15159;SDS011;7680;48.800;9.680;2022-08-11T00:20:11;4.15;;;3.72;;
15159;SDS011;7680;48.800;9.680;2022-08-11T00:22:47;4.40;;;3.50;;
15159;SDS011;7680;48.800;9.680;2022-08-11T00:25:23;4.03;;;3.60;;
15159;SDS011;7680;48.800;9.680;2022-08-11T00:27:56;4.60;;;4.20;;
15159;SDS011;7680;48.800;9.680;2022-08-11T00:30:37;3.78;;;3.47;;
15159;SDS011;7680;48.800;9.680;2022-08-11T00:33:11;3.70;;;3.35;;
15159;SDS011;7680;48.800;9.680;2022-08-11T00:35:44;3.70;;;3.50;;
15159;SDS011;7680;48.800;9.680;2022-08-11T00:38:28;3.70;;;3.47;;
15159;SDS011;7680;48.800;9.680;2022-08-11T00:41:14;4.25;;;3.95;;
15159;SDS011;7680;48.800;9.680;2022-08-11T00:44:03;4.20;;;3.90;;
15159;SDS011;7680;48.800;9.680;2022-08-11T00:46:56;4.00;;;3.70;;
15159;SDS011;7680;48.800;9.680;2022-08-11T00:49:44;3.78;;;3.58;;
15159;SDS011;7680;48.800;9.680;2022-08-11T00:52:32;4.28;;;3.88;;
15159;SDS011;7680;48.800;9.680;2022-08-11T01:02:20;4.20;;;3.90;;
15159;SDS011;7680;48.800;9.680;2022-08-11T01:05:33;4.50;;;4.05;;
15159;SDS011;7680;48.800;9.680;2022-08-11T01:12:03;4.30;;;3.95;;
15159;SDS011;7680;48.800;9.680;2022-08-11T01:15:18;4.65;;;4.25;;
15159;SDS011;7680;48.800;9.680;2022-08-11T01:26:29;4.63;;;4.32;;
15159;SDS011;7680;48.800;9.680;2022-08-11T01:36:39;4.68;;;4.38;;
15159;SDS011;7680;48.800;9.680;2022-08-11T01:39:50;5.50;;;4.82;;
15159;SDS011;7680;48.800;9.680;2022-08-11T01:42:56;5.32;;;4.70;;
15159;SDS011;7680;48.800;9.680;2022-08-11T01:46:45;5.00;;;4.60;;
15159;SDS011;7680;48.800;9.680;2022-08-11T01:49:27;5.05;;;4.57;;
15159;SDS011;7680;48.800;9.680;2022-08-11T01:52:35;4.70;;;4.40;;
15159;SDS011;7680;48.800;9.680;2022-08-11T01:55:26;4.88;;;4.57;;
15159;SDS011;7680;48.800;9.680;2022-08-11T01:58:07;5.28;;;4.88;;
15159;SDS011;7680;48.800;9.680;2022-08-11T02:01:15;5.28;;;4.82;;
15159;SDS011;7680;48.800;9.680;2022-08-11T02:04:15;5.25;;;4.85;;
15159;SDS011;7680;48.800;9.680;2022-08-11T02:06:59;5.20;;;4.80;;
15159;SDS011;7680;48.800;9.680;2022-08-11T02:09:44;5.05;;;4.72;;
15159;SDS011;7680;48.800;9.680;2022-08-11T02:12:36;5.18;;;4.72;;
15159;SDS011;7680;48.800;9.680;2022-08-11T02:15:24;5.45;;;4.95;;
15159;SDS011;7680;48.800;9.680;2022-08-11T02:18:05;5.15;;;4.75;;
15159;SDS011;7680;48.800;9.680;2022-08-11T02:20:50;5.47;;;5.07;;
15159;SDS011;7680;48.800;9.680;2022-08-11T02:23:47;5.20;;;4.80;;
15159;SDS011;7680;48.800;9.680;2022-08-11T02:26:39;5.15;;;4.75;;
15159;SDS011;7680;48.800;9.680;2022-08-11T02:29:17;5.97;;;5.38;;
15159;SDS011;7680;48.800;9.680;2022-08-11T02:31:57;5.60;;;5.20;;
15159;SDS011;7680;48.800;9.680;2022-08-11T02:35:11;5.72;;;5.32;;
15159;SDS011;7680;48.800;9.680;2022-08-11T02:37:55;5.63;;;5.22;;
15159;SDS011;7680;48.800;9.680;2022-08-11T02:40:42;6.28;;;5.72;;
15159;SDS011;7680;48.800;9.680;2022-08-11T02:43:33;5.78;;;5.35;;
15159;SDS011;7680;48.800;9.680;2022-08-11T02:46:22;5.88;;;5.35;;
15159;SDS011;7680;48.800;9.680;2022-08-11T02:49:04;5.72;;;5.30;;
15159;SDS011;7680;48.800;9.680;2022-08-11T02:52:04;6.32;;;5.93;;
15159;SDS011;7680;48.800;9.680;2022-08-11T02:54:50;6.03;;;5.60;;
15159;SDS011;7680;48.800;9.680;2022-08-11T02:58:09;5.93;;;5.53;;
15159;SDS011;7680;48.800;9.680;2022-08-11T03:00:52;6.18;;;5.78;;
15159;SDS011;7680;48.800;9.680;2022-08-11T03:03:35;6.32;;;5.93;;
15159;SDS011;7680;48.800;9.680;2022-08-11T03:06:23;6.63;;;5.93;;
15159;SDS011;7680;48.800;9.680;2022-08-11T03:09:09;6.10;;;5.60;;
15159;SDS011;7680;48.800;9.680;2022-08-11T03:11:51;6.00;;;5.50;;
15159;SDS011;7680;48.800;9.680;2022-08-11T03:14:51;5.95;;;5.45;;
15159;SDS011;7680;48.800;9.680;2022-08-11T03:17:52;6.15;;;5.75;;
15159;SDS011;7680;48.800;9.680;2022-08-11T03:20:37;6.50;;;6.00;;
15159;SDS011;7680;48.800;9.680;2022-08-11T03:23:21;6.68;;;6.07;;
15159;SDS011;7680;48.800;9.680;2022-08-11T03:26:02;6.53;;;5.85;;
15159;SDS011;7680;48.800;9.680;2022-08-11T03:28:42;5.25;;;4.88;;
15159;SDS011;7680;48.800;9.680;2022-08-11T03:31:24;5.82;;;5.30;;
15159;SDS011;7680;48.800;9.680;2022-08-11T03:34:03;6.15;;;5.72;;
15159;SDS011;7680;48.800;9.680;2022-08-11T03:40:28;6.38;;;5.88;;
15159;SDS011;7680;48.800;9.680;2022-08-11T03:43:36;6.25;;;5.75;;
15159;SDS011;7680;48.800;9.680;2022-08-11T03:46:34;5.95;;;5.50;;
15159;SDS011;7680;48.800;9.680;2022-08-11T03:49:27;6.25;;;5.75;;
15159;SDS011;7680;48.800;9.680;2022-08-11T03:52:12;6.53;;;6.03;;
15159;SDS011;7680;48.800;9.680;2022-08-11T03:54:54;6.47;;;5.90;;
15159;SDS011;7680;48.800;9.680;2022-08-11T03:57:43;5.82;;;5.43;;
15159;SDS011;7680;48.800;9.680;2022-08-11T04:03:43;5.97;;;5.57;;
15159;SDS011;7680;48.800;9.680;2022-08-11T04:07:26;6.50;;;6.00;;
15159;SDS011;7680;48.800;9.680;2022-08-11T04:10:45;6.15;;;5.65;;
15159;SDS011;7680;48.800;9.680;2022-08-11T04:20:30;6.10;;;5.72;;
15159;SDS011;7680;48.800;9.680;2022-08-11T04:30:40;6.38;;;5.97;;
15159;SDS011;7680;48.800;9.680;2022-08-11T04:33:51;6.70;;;6.20;;
15159;SDS011;7680;48.800;9.680;2022-08-11T04:36:49;6.53;;;6.00;;
15159;SDS011;7680;48.800;9.680;2022-08-11T04:40:11;6.68;;;6.07;;
15159;SDS011;7680;48.800;9.680;2022-08-11T04:47:00;6.47;;;5.90;;
15159;SDS011;7680;48.800;9.680;2022-08-11T04:50:44;6.68;;;6.18;;
15159;SDS011;7680;48.800;9.680;2022-08-11T04:53:53;6.07;;;5.68;;
15159;SDS011;7680;48.800;9.680;2022-08-11T04:56:57;6.05;;;5.60;;
15159;SDS011;7680;48.800;9.680;2022-08-11T05:00:09;6.40;;;5.80;;
15159;SDS011;7680;48.800;9.680;2022-08-11T05:03:12;6.10;;;5.60;;
15159;SDS011;7680;48.800;9.680;2022-08-11T05:06:27;6.20;;;5.70;;
15159;SDS011;7680;48.800;9.680;2022-08-11T05:12:52;6.45;;;5.95;;
15159;SDS011;7680;48.800;9.680;2022-08-11T05:15:50;6.53;;;6.07;;
15159;SDS011;7680;48.800;9.680;2022-08-11T05:18:44;6.13;;;5.53;;
15159;SDS011;7680;48.800;9.680;2022-08-11T05:21:41;7.63;;;6.10;;
15159;SDS011;7680;48.800;9.680;2022-08-11T05:24:36;6.28;;;5.78;;
15159;SDS011;7680;48.800;9.680;2022-08-11T05:27:34;5.88;;;5.32;;
15159;SDS011;7680;48.800;9.680;2022-08-11T05:30:43;6.20;;;5.70;;
15159;SDS011;7680;48.800;9.680;2022-08-11T05:33:41;6.13;;;5.68;;
15159;SDS011;7680;48.800;9.680;2022-08-11T05:36:38;5.25;;;4.93;;
15159;SDS011;7680;48.800;9.680;2022-08-11T05:39:19;5.00;;;4.60;;
15159;SDS011;7680;48.800;9.680;2022-08-11T05:42:13;5.40;;;5.00;;
15159;SDS011;7680;48.800;9.680;2022-08-11T05:45:12;5.90;;;5.40;;
15159;SDS011;7680;48.800;9.680;2022-08-11T05:48:28;5.80;;;5.18;;
15159;SDS011;7680;48.800;9.680;2022-08-11T05:51:22;4.93;;;4.50;;
15159;SDS011;7680;48.800;9.680;2022-08-11T05:54:27;5.70;;;5.18;;
15159;SDS011;7680;48.800;9.680;2022-08-11T05:57:19;5.25;;;4.85;;
15159;SDS011;7680;48.800;9.680;2022-08-11T06:00:17;5.25;;;4.85;;
15159;SDS011;7680;48.800;9.680;2022-08-11T06:02:52;5.38;;;4.88;;
15159;SDS011;7680;48.800;9.680;2022-08-11T06:05:32;5.20;;;4.80;;
15159;SDS011;7680;48.800;9.680;2022-08-11T06:08:14;8.23;;;4.93;;
15159;SDS011;7680;48.800;9.680;2022-08-11T06:10:47;4.72;;;4.32;;
15159;SDS011;7680;48.800;9.680;2022-08-11T06:13:21;4.50;;;4.10;;
15159;SDS011;7680;48.800;9.680;2022-08-11T06:15:58;4.60;;;4.20;;
15159;SDS011;7680;48.800;9.680;2022-08-11T06:18:37;4.60;;;4.20;;
15159;SDS011;7680;48.800;9.680;2022-08-11T06:21:10;4.57;;;4.18;;
15159;SDS011;7680;48.800;9.680;2022-08-11T06:23:46;4.32;;;4.03;;
15159;SDS011;7680;48.800;9.680;2022-08-11T06:26:20;4.40;;;3.90;;
15159;SDS011;7680;48.800;9.680;2022-08-11T06:28:55;4.90;;;3.92;;
15159;SDS011;7680;48.800;9.680;2022-08-11T06:31:34;4.63;;;4.25;;
15159;SDS011;7680;48.800;9.680;2022-08-11T06:34:10;5.38;;;4.20;;
15159;SDS011;7680;48.800;9.680;2022-08-11T06:36:59;4.18;;;3.88;;
15159;SDS011;7680;48.800;9.680;2022-08-11T06:39:51;4.50;;;4.10;;
15159;SDS011;7680;48.800;9.680;2022-08-11T06:42:45;4.55;;;4.15;;
15159;SDS011;7680;48.800;9.680;2022-08-11T06:45:29;4.68;;;4.22;;
15159;SDS011;7680;48.800;9.680;2022-08-11T06:48:15;4.57;;;4.10;;
15159;SDS011;7680;48.800;9.680;2022-08-11T06:50:54;4.45;;;4.10;;
15159;SDS011;7680;48.800;9.680;2022-08-11T06:53:44;4.88;;;3.55;;
15159;SDS011;7680;48.800;9.680;2022-08-11T06:56:35;3.88;;;3.58;;
15159;SDS011;7680;48.800;9.680;2022-08-11T06:59:49;4.13;;;3.72;;
15159;SDS011;7680;48.800;9.680;2022-08-11T07:02:44;3.75;;;3.45;;
15159;SDS011;7680;48.800;9.680;2022-08-11T07:05:27;4.35;;;3.78;;
15159;SDS011;7680;48.800;9.680;2022-08-11T07:08:18;4.75;;;3.70;;
15159;SDS011;7680;48.800;9.680;2022-08-11T07:11:47;4.00;;;3.70;;
15159;SDS011;7680;48.800;9.680;2022-08-11T07:15:10;3.30;;;3.10;;
15159;SDS011;7680;48.800;9.680;2022-08-11T07:18:24;3.47;;;3.17;;
15159;SDS011;7680;48.800;9.680;2022-08-11T07:21:20;4.15;;;3.30;;
15159;SDS011;7680;48.800;9.680;2022-08-11T07:24:35;3.45;;;3.15;;
15159;SDS011;7680;48.800;9.680;2022-08-11T07:27:35;5.22;;;3.53;;
15159;SDS011;7680;48.800;9.680;2022-08-11T07:30:33;3.47;;;3.17;;
15159;SDS011;7680;48.800;9.680;2022-08-11T07:33:11;3.42;;;3.00;;
15159;SDS011;7680;48.800;9.680;2022-08-11T07:36:06;4.10;;;3.05;;
15159;SDS011;7680;48.800;9.680;2022-08-11T07:38:46;3.40;;;3.15;;
15159;SDS011;7680;48.800;9.680;2022-08-11T07:41:23;4.60;;;3.10;;
15159;SDS011;7680;48.800;9.680;2022-08-11T07:43:58;3.85;;;3.35;;
15159;SDS011;7680;48.800;9.680;2022-08-11T07:46:39;3.63;;;3.20;;
15159;SDS011;7680;48.800;9.680;2022-08-11T07:49:33;3.30;;;3.00;;
15159;SDS011;7680;48.800;9.680;2022-08-11T07:52:27;3.80;;;3.20;;
15159;SDS011;7680;48.800;9.680;2022-08-11T07:55:07;5.07;;;3.42;;
15159;SDS011;7680;48.800;9.680;2022-08-11T07:57:45;3.63;;;3.35;;
15159;SDS011;7680;48.800;9.680;2022-08-11T08:00:51;3.75;;;3.25;;
15159;SDS011;7680;48.800;9.680;2022-08-11T08:03:52;4.13;;;3.00;;
15159;SDS011;7680;48.800;9.680;2022-08-11T08:06:43;4.43;;;3.35;;
15159;SDS011;7680;48.800;9.680;2022-08-11T08:09:35;4.55;;;3.22;;
15159;SDS011;7680;48.800;9.680;2022-08-11T08:12:27;3.60;;;3.30;;
15159;SDS011;7680;48.800;9.680;2022-08-11T08:15:20;4.22;;;2.80;;
15159;SDS011;7680;48.800;9.680;2022-08-11T08:18:11;3.28;;;2.97;;
15159;SDS011;7680;48.800;9.680;2022-08-11T08:20:57;3.33;;;3.08;;
15159;SDS011;7680;48.800;9.680;2022-08-11T08:23:44;3.30;;;3.10;;
15159;SDS011;7680;48.800;9.680;2022-08-11T08:26:26;3.17;;;2.97;;
15159;SDS011;7680;48.800;9.680;2022-08-11T08:29:23;3.13;;;2.83;;
15159;SDS011;7680;48.800;9.680;2022-08-11T08:32:16;4.18;;;2.97;;
15159;SDS011;7680;48.800;9.680;2022-08-11T08:34:50;3.60;;;3.30;;
15159;SDS011;7680;48.800;9.680;2022-08-11T08:37:25;3.13;;;2.92;;
15159;SDS011;7680;48.800;9.680;2022-08-11T08:40:17;3.63;;;2.92;;
15159;SDS011;7680;48.800;9.680;2022-08-11T08:42:52;3.30;;;3.05;;
15159;SDS011;7680;48.800;9.680;2022-08-11T08:45:30;3.15;;;2.95;;
15159;SDS011;7680;48.800;9.680;2022-08-11T08:48:09;3.40;;;3.10;;
15159;SDS011;7680;48.800;9.680;2022-08-11T08:50:51;3.35;;;3.05;;
15159;SDS011;7680;48.800;9.680;2022-08-11T08:53:47;3.35;;;3.05;;
15159;SDS011;7680;48.800;9.680;2022-08-11T08:56:28;3.05;;;2.80;;
15159;SDS011;7680;48.800;9.680;2022-08-11T08:59:04;3.00;;;2.80;;
15159;SDS011;7680;48.800;9.680;2022-08-11T09:01:41;3.10;;;2.90;;
15159;SDS011;7680;48.800;9.680;2022-08-11T09:04:19;3.80;;;3.20;;
15159;SDS011;7680;48.800;9.680;2022-08-11T09:06:53;3.75;;;2.70;;
15159;SDS011;7680;48.800;9.680;2022-08-11T09:09:33;3.28;;;2.97;;
15159;SDS011;7680;48.800;9.680;2022-08-11T09:12:07;3.15;;;2.90;;
15159;SDS011;7680;48.800;9.680;2022-08-11T09:14:42;2.88;;;2.67;;
15159;SDS011;7680;48.800;9.680;2022-08-11T09:17:37;3.25;;;2.65;;
15159;SDS011;7680;48.800;9.680;2022-08-11T09:20:14;3.10;;;2.83;;
15159;SDS011;7680;48.800;9.680;2022-08-11T09:22:55;3.05;;;2.85;;
15159;SDS011;7680;48.800;9.680;2022-08-11T09:26:07;3.17;;;2.80;;
15159;SDS011;7680;48.800;9.680;2022-08-11T09:29:01;3.30;;;3.00;;
15159;SDS011;7680;48.800;9.680;2022-08-11T09:31:35;3.15;;;2.85;;
15159;SDS011;7680;48.800;9.680;2022-08-11T09:34:12;3.05;;;2.60;;
15159;SDS011;7680;48.800;9.680;2022-08-11T09:36:46;3.25;;;3.05;;
15159;SDS011;7680;48.800;9.680;2022-08-11T09:39:37;4.55;;;3.30;;
15159;SDS011;7680;48.800;9.680;2022-08-11T09:42:32;3.63;;;2.75;;
15159;SDS011;7680;48.800;9.680;2022-08-11T09:45:23;3.65;;;3.03;;
15159;SDS011;7680;48.800;9.680;2022-08-11T09:48:10;2.85;;;2.60;;
15159;SDS011;7680;48.800;9.680;2022-08-11T09:50:45;5.00;;;2.88;;
15159;SDS011;7680;48.800;9.680;2022-08-11T09:53:23;3.10;;;2.80;;
15159;SDS011;7680;48.800;9.680;2022-08-11T09:56:09;3.25;;;2.78;;
15159;SDS011;7680;48.800;9.680;2022-08-11T09:59:10;2.95;;;2.30;;
15159;SDS011;7680;48.800;9.680;2022-08-11T10:01:44;3.10;;;2.67;;
15159;SDS011;7680;48.800;9.680;2022-08-11T10:04:22;2.70;;;2.50;;
15159;SDS011;7680;48.800;9.680;2022-08-11T10:07:04;3.22;;;2.80;;
15159;SDS011;7680;48.800;9.680;2022-08-11T10:09:41;4.63;;;2.38;;
15159;SDS011;7680;48.800;9.680;2022-08-11T10:12:20;3.08;;;2.78;;
15159;SDS011;7680;48.800;9.680;2022-08-11T10:14:57;3.05;;;2.33;;
15159;SDS011;7680;48.800;9.680;2022-08-11T10:17:54;3.03;;;2.45;;
15159;SDS011;7680;48.800;9.680;2022-08-11T10:20:51;3.58;;;2.42;;
15159;SDS011;7680;48.800;9.680;2022-08-11T10:23:39;3.17;;;2.30;;
15159;SDS011;7680;48.800;9.680;2022-08-11T10:26:36;2.65;;;2.45;;
15159;SDS011;7680;48.800;9.680;2022-08-11T10:29:26;3.08;;;2.60;;
15159;SDS011;7680;48.800;9.680;2022-08-11T10:32:22;4.57;;;2.72;;
15159;SDS011;7680;48.800;9.680;2022-08-11T10:35:30;2.72;;;2.40;;
15159;SDS011;7680;48.800;9.680;2022-08-11T10:38:04;2.65;;;2.45;;
15159;SDS011;7680;48.800;9.680;2022-08-11T10:40:44;2.80;;;2.60;;
15159;SDS011;7680;48.800;9.680;2022-08-11T10:43:40;3.25;;;2.30;;
15159;SDS011;7680;48.800;9.680;2022-08-11T10:46:33;3.17;;;2.42;;
15159;SDS011;7680;48.800;9.680;2022-08-11T10:49:24;4.43;;;2.67;;
15159;SDS011;7680;48.800;9.680;2022-08-11T10:51:58;3.75;;;3.00;;
15159;SDS011;7680;48.800;9.680;2022-08-11T10:54:50;2.92;;;2.33;;
15159;SDS011;7680;48.800;9.680;2022-08-11T10:57:43;2.75;;;2.50;;
15159;SDS011;7680;48.800;9.680;2022-08-11T11:00:35;2.65;;;2.45;;
15159;SDS011;7680;48.800;9.680;2022-08-11T11:03:09;2.60;;;2.40;;
15159;SDS011;7680;48.800;9.680;2022-08-11T11:05:55;3.05;;;2.50;;
15159;SDS011;7680;48.800;9.680;2022-08-11T11:08:57;3.88;;;2.38;;
15159;SDS011;7680;48.800;9.680;2022-08-11T11:11:37;3.83;;;2.08;;
15159;SDS011;7680;48.800;9.680;2022-08-11T11:14:36;3.00;;;2.33;;
15159;SDS011;7680;48.800;9.680;2022-08-11T11:17:31;2.25;;;1.98;;
15159;SDS011;7680;48.800;9.680;2022-08-11T11:20:32;3.92;;;2.45;;
15159;SDS011;7680;48.800;9.680;2022-08-11T11:23:18;2.72;;;2.03;;
15159;SDS011;7680;48.800;9.680;2022-08-11T11:26:07;2.47;;;2.28;;
15159;SDS011;7680;48.800;9.680;2022-08-11T11:32:23;2.30;;;2.20;;
15159;SDS011;7680;48.800;9.680;2022-08-11T11:38:09;2.65;;;2.45;;
15159;SDS011;7680;48.800;9.680;2022-08-11T11:40:44;3.03;;;2.13;;
15159;SDS011;7680;48.800;9.680;2022-08-11T11:43:38;2.63;;;2.08;;
15159;SDS011;7680;48.800;9.680;2022-08-11T11:46:13;3.22;;;2.30;;
15159;SDS011;7680;48.800;9.680;2022-08-11T11:48:48;3.53;;;2.42;;
15159;SDS011;7680;48.800;9.680;2022-08-11T11:51:22;2.40;;;2.25;;
15159;SDS011;7680;48.800;9.680;2022-08-11T11:53:57;2.45;;;2.10;;
15159;SDS011;7680;48.800;9.680;2022-08-11T11:56:32;2.10;;;2.00;;
15159;SDS011;7680;48.800;9.680;2022-08-11T11:59:06;2.53;;;2.33;;
15159;SDS011;7680;48.800;9.680;2022-08-11T12:01:59;4.90;;;2.35;;
15159;SDS011;7680;48.800;9.680;2022-08-11T12:04:43;2.42;;;2.22;;
15159;SDS011;7680;48.800;9.680;2022-08-11T12:07:19;2.70;;;2.50;;
15159;SDS011;7680;48.800;9.680;2022-08-11T12:10:10;2.47;;;2.22;;
15159;SDS011;7680;48.800;9.680;2022-08-11T12:12:43;2.67;;;2.47;;
15159;SDS011;7680;48.800;9.680;2022-08-11T12:15:36;2.33;;;2.15;;
15159;SDS011;7680;48.800;9.680;2022-08-11T12:18:31;2.90;;;2.70;;
15159;SDS011;7680;48.800;9.680;2022-08-11T12:21:06;2.53;;;2.25;;
15159;SDS011;7680;48.800;9.680;2022-08-11T12:23:42;2.45;;;2.25;;
15159;SDS011;7680;48.800;9.680;2022-08-11T12:26:35;2.78;;;2.45;;
15159;SDS011;7680;48.800;9.680;2022-08-11T12:29:48;2.80;;;2.60;;
15159;SDS011;7680;48.800;9.680;2022-08-11T12:32:26;2.28;;;2.17;;
15159;SDS011;7680;48.800;9.680;2022-08-11T12:35:04;2.25;;;2.03;;
15159;SDS011;7680;48.800;9.680;2022-08-11T12:37:39;2.55;;;2.35;;
15159;SDS011;7680;48.800;9.680;2022-08-11T12:40:17;2.03;;;1.92;;
15159;SDS011;7680;48.800;9.680;2022-08-11T12:43:31;2.15;;;2.05;;
15159;SDS011;7680;48.800;9.680;2022-08-11T12:46:28;2.25;;;2.05;;
15159;SDS011;7680;48.800;9.680;2022-08-11T12:49:06;2.50;;;2.30;;
15159;SDS011;7680;48.800;9.680;2022-08-11T12:52:04;4.75;;;2.17;;
15159;SDS011;7680;48.800;9.680;2022-08-11T12:54:48;2.28;;;2.17;;
15159;SDS011;7680;48.800;9.680;2022-08-11T12:57:30;3.33;;;2.20;;
15159;SDS011;7680;48.800;9.680;2022-08-11T13:00:25;2.75;;;2.55;;
15159;SDS011;7680;48.800;9.680;2022-08-11T13:03:19;2.10;;;2.00;;
15159;SDS011;7680;48.800;9.680;2022-08-11T13:06:11;2.42;;;2.22;;
15159;SDS011;7680;48.800;9.680;2022-08-11T13:08:48;2.30;;;2.20;;
15159;SDS011;7680;48.800;9.680;2022-08-11T13:11:22;2.55;;;2.20;;
15159;SDS011;7680;48.800;9.680;2022-08-11T13:14:28;2.85;;;2.17;;
15159;SDS011;7680;48.800;9.680;2022-08-11T13:17:03;2.10;;;2.00;;
15159;SDS011;7680;48.800;9.680;2022-08-11T13:20:15;2.65;;;2.45;;
15159;SDS011;7680;48.800;9.680;2022-08-11T13:22:54;2.25;;;2.08;;
15159;SDS011;7680;48.800;9.680;2022-08-11T13:25:30;2.65;;;2.03;;
15159;SDS011;7680;48.800;9.680;2022-08-11T13:28:04;2.70;;;2.20;;
15159;SDS011;7680;48.800;9.680;2022-08-11T13:30:38;5.15;;;2.30;;
15159;SDS011;7680;48.800;9.680;2022-08-11T13:33:29;2.80;;;2.13;;
15159;SDS011;7680;48.800;9.680;2022-08-11T13:36:06;2.47;;;2.10;;
15159;SDS011;7680;48.800;9.680;2022-08-11T13:38:41;2.63;;;2.30;;
15159;SDS011;7680;48.800;9.680;2022-08-11T13:41:21;2.47;;;2.28;;
15159;SDS011;7680;48.800;9.680;2022-08-11T13:44:12;3.28;;;2.20;;
15159;SDS011;7680;48.800;9.680;2022-08-11T13:46:56;2.20;;;2.10;;
15159;SDS011;7680;48.800;9.680;2022-08-11T13:49:34;2.40;;;2.20;;
15159;SDS011;7680;48.800;9.680;2022-08-11T13:52:12;2.22;;;2.00;;
15159;SDS011;7680;48.800;9.680;2022-08-11T13:54:47;2.85;;;2.30;;
15159;SDS011;7680;48.800;9.680;2022-08-11T13:57:24;2.38;;;2.00;;
15159;SDS011;7680;48.800;9.680;2022-08-11T14:00:23;3.05;;;2.30;;
15159;SDS011;7680;48.800;9.680;2022-08-11T14:03:02;3.45;;;2.10;;
15159;SDS011;7680;48.800;9.680;2022-08-11T14:05:44;2.50;;;2.30;;
15159;SDS011;7680;48.800;9.680;2022-08-11T14:08:23;2.38;;;2.15;;
15159;SDS011;7680;48.800;9.680;2022-08-11T14:11:09;2.63;;;2.25;;
15159;SDS011;7680;48.800;9.680;2022-08-11T14:14:24;2.38;;;2.17;;
15159;SDS011;7680;48.800;9.680;2022-08-11T14:17:00;2.40;;;2.20;;
15159;SDS011;7680;48.800;9.680;2022-08-11T14:19:40;2.95;;;1.92;;
15159;SDS011;7680;48.800;9.680;2022-08-11T14:22:15;2.83;;;2.17;;
15159;SDS011;7680;48.800;9.680;2022-08-11T14:24:52;2.40;;;2.20;;
15159;SDS011;7680;48.800;9.680;2022-08-11T14:27:25;2.30;;;2.10;;
15159;SDS011;7680;48.800;9.680;2022-08-11T14:30:22;4.03;;;2.20;;
15159;SDS011;7680;48.800;9.680;2022-08-11T14:33:13;2.30;;;2.10;;
15159;SDS011;7680;48.800;9.680;2022-08-11T14:35:51;3.00;;;2.40;;
15159;SDS011;7680;48.800;9.680;2022-08-11T14:38:24;2.65;;;2.40;;
15159;SDS011;7680;48.800;9.680;2022-08-11T14:40:58;2.65;;;2.45;;
15159;SDS011;7680;48.800;9.680;2022-08-11T14:43:49;2.85;;;2.20;;
15159;SDS011;7680;48.800;9.680;2022-08-11T14:46:46;2.42;;;2.10;;
15159;SDS011;7680;48.800;9.680;2022-08-11T14:49:54;2.35;;;2.05;;
15159;SDS011;7680;48.800;9.680;2022-08-11T14:52:43;2.60;;;2.40;;
15159;SDS011;7680;48.800;9.680;2022-08-11T14:55:22;3.47;;;2.38;;
15159;SDS011;7680;48.800;9.680;2022-08-11T14:58:15;4.78;;;2.35;;
15159;SDS011;7680;48.800;9.680;2022-08-11T15:00:51;2.28;;;2.00;;
15159;SDS011;7680;48.800;9.680;2022-08-11T15:03:29;2.38;;;2.15;;
15159;SDS011;7680;48.800;9.680;2022-08-11T15:06:04;2.53;;;2.30;;
15159;SDS011;7680;48.800;9.680;2022-08-11T15:08:38;2.80;;;2.40;;
15159;SDS011;7680;48.800;9.680;2022-08-11T15:11:27;2.50;;;2.30;;
15159;SDS011;7680;48.800;9.680;2022-08-11T15:14:20;3.20;;;2.38;;
15159;SDS011;7680;48.800;9.680;2022-08-11T15:17:07;2.53;;;2.10;;
15159;SDS011;7680;48.800;9.680;2022-08-11T15:19:44;3.03;;;2.40;;
15159;SDS011;7680;48.800;9.680;2022-08-11T15:22:32;3.42;;;2.10;;
15159;SDS011;7680;48.800;9.680;2022-08-11T15:25:23;3.65;;;2.30;;
15159;SDS011;7680;48.800;9.680;2022-08-11T15:27:58;2.28;;;2.17;;
15159;SDS011;7680;48.800;9.680;2022-08-11T15:30:51;2.55;;;2.35;;
15159;SDS011;7680;48.800;9.680;2022-08-11T15:33:45;3.72;;;2.45;;
15159;SDS011;7680;48.800;9.680;2022-08-11T15:36:44;3.20;;;2.53;;
15159;SDS011;7680;48.800;9.680;2022-08-11T15:39:44;2.60;;;2.40;;
15159;SDS011;7680;48.800;9.680;2022-08-11T15:43:00;2.45;;;2.13;;
15159;SDS011;7680;48.800;9.680;2022-08-11T15:46:00;2.60;;;2.40;;
15159;SDS011;7680;48.800;9.680;2022-08-11T15:48:40;2.50;;;2.30;;
15159;SDS011;7680;48.800;9.680;2022-08-11T15:51:19;2.53;;;2.33;;
15159;SDS011;7680;48.800;9.680;2022-08-11T15:54:08;2.75;;;2.55;;
15159;SDS011;7680;48.800;9.680;2022-08-11T15:56:47;2.90;;;2.17;;
15159;SDS011;7680;48.800;9.680;2022-08-11T15:59:23;3.08;;;2.47;;
15159;SDS011;7680;48.800;9.680;2022-08-11T16:02:16;2.25;;;2.15;;
15159;SDS011;7680;48.800;9.680;2022-08-11T16:05:10;3.92;;;2.33;;
15159;SDS011;7680;48.800;9.680;2022-08-11T16:08:08;2.80;;;2.35;;
15159;SDS011;7680;48.800;9.680;2022-08-11T16:10:46;2.50;;;2.30;;
15159;SDS011;7680;48.800;9.680;2022-08-11T16:13:22;2.20;;;2.10;;
15159;SDS011;7680;48.800;9.680;2022-08-11T16:16:15;2.33;;;2.13;;
15159;SDS011;7680;48.800;9.680;2022-08-11T16:18:50;2.60;;;2.40;;
15159;SDS011;7680;48.800;9.680;2022-08-11T16:21:29;2.50;;;2.30;;
15159;SDS011;7680;48.800;9.680;2022-08-11T16:24:07;2.40;;;2.20;;
15159;SDS011;7680;48.800;9.680;2022-08-11T16:27:05;2.33;;;2.00;;
15159;SDS011;7680;48.800;9.680;2022-08-11T16:29:44;2.40;;;2.20;;
15159;SDS011;7680;48.800;9.680;2022-08-11T16:32:19;3.53;;;2.15;;
15159;SDS011;7680;48.800;9.680;2022-08-11T16:34:56;2.55;;;2.20;;
15159;SDS011;7680;48.800;9.680;2022-08-11T16:37:50;2.83;;;2.28;;
15159;SDS011;7680;48.800;9.680;2022-08-11T16:40:42;3.35;;;2.05;;
15159;SDS011;7680;48.800;9.680;2022-08-11T16:43:18;3.55;;;2.20;;
15159;SDS011;7680;48.800;9.680;2022-08-11T16:46:12;2.17;;;2.05;;
15159;SDS011;7680;48.800;9.680;2022-08-11T16:49:04;4.35;;;2.30;;
15159;SDS011;7680;48.800;9.680;2022-08-11T16:51:41;2.05;;;1.95;;
15159;SDS011;7680;48.800;9.680;2022-08-11T16:54:14;2.42;;;2.22;;
15159;SDS011;7680;48.800;9.680;2022-08-11T16:56:49;2.28;;;2.10;;
15159;SDS011;7680;48.800;9.680;2022-08-11T16:59:26;2.17;;;2.08;;
15159;SDS011;7680;48.800;9.680;2022-08-11T17:02:04;2.50;;;2.30;;
15159;SDS011;7680;48.800;9.680;2022-08-11T17:04:42;2.50;;;2.40;;
15159;SDS011;7680;48.800;9.680;2022-08-11T17:07:40;2.08;;;1.98;;
15159;SDS011;7680;48.800;9.680;2022-08-11T17:10:34;5.03;;;2.60;;
15159;SDS011;7680;48.800;9.680;2022-08-11T17:13:36;2.65;;;2.40;;
15159;SDS011;7680;48.800;9.680;2022-08-11T17:16:15;3.83;;;2.20;;
15159;SDS011;7680;48.800;9.680;2022-08-11T17:18:56;2.72;;;2.40;;
15159;SDS011;7680;48.800;9.680;2022-08-11T17:21:34;2.38;;;2.20;;
15159;SDS011;7680;48.800;9.680;2022-08-11T17:24:32;2.63;;;2.42;;
15159;SDS011;7680;48.800;9.680;2022-08-11T17:27:07;2.47;;;2.28;;
15159;SDS011;7680;48.800;9.680;2022-08-11T17:29:47;2.35;;;2.15;;
15159;SDS011;7680;48.800;9.680;2022-08-11T17:32:28;2.60;;;2.35;;
15159;SDS011;7680;48.800;9.680;2022-08-11T17:35:28;2.58;;;2.38;;
15159;SDS011;7680;48.800;9.680;2022-08-11T17:38:06;3.63;;;2.03;;
15159;SDS011;7680;48.800;9.680;2022-08-11T17:40:46;3.08;;;2.10;;
15159;SDS011;7680;48.800;9.680;2022-08-11T17:43:37;2.55;;;2.17;;
15159;SDS011;7680;48.800;9.680;2022-08-11T17:46:29;2.55;;;2.25;;
15159;SDS011;7680;48.800;9.680;2022-08-11T17:49:22;2.50;;;2.30;;
15159;SDS011;7680;48.800;9.680;2022-08-11T17:51:58;2.30;;;2.10;;
15159;SDS011;7680;48.800;9.680;2022-08-11T17:54:49;3.67;;;2.30;;
15159;SDS011;7680;48.800;9.680;2022-08-11T17:57:43;2.85;;;1.98;;
15159;SDS011;7680;48.800;9.680;2022-08-11T18:00:40;2.40;;;2.20;;
15159;SDS011;7680;48.800;9.680;2022-08-11T18:03:45;3.97;;;2.47;;
15159;SDS011;7680;48.800;9.680;2022-08-11T18:06:29;2.15;;;1.95;;
15159;SDS011;7680;48.800;9.680;2022-08-11T18:09:07;2.30;;;2.10;;